Time;durP1;ratioP1;P1;durP2;ratioP2;P2;SDS_P1;SDS_P2;PMS_P1;PMS_P2;Temp;Humidity;BMP_temperature;BMP_pressure;BME280_temperature;BME280_humidity;BME280_pressure;Samples;Min_cycle;Max_cycle;Signal;HPM_P1;HPM_P2
2024/01/11 00:01:40;;;;;;;48.67;19.57;;;;;;;-0.52;56.91;101819.53;4806142;29;21398;-72
2024/01/11 00:04:07;;;;;;;43.90;20.07;;;;;;;-0.55;57.05;101823.09;4805210;29;21059;-74
2024/01/11 00:06:41;;;;;;;51.23;21.33;;;;;;;-0.55;57.11;101827.44;4800840;29;20467;-72
2024/01/11 00:09:09;;;;;;;44.63;19.13;;;;;;;-0.55;57.03;101827.44;4802335;29;20212;-73
2024/01/11 00:11:37;;;;;;;51.83;21.03;;;;;;;-0.58;56.88;101817.97;4802876;29;20242;-76
2024/01/11 00:14:07;;;;;;;46.77;19.00;;;;;;;-0.54;56.97;101830.00;4804383;29;21121;-73
2024/01/11 00:16:34;;;;;;;49.63;22.13;;;;;;;-0.55;57.04;101830.91;4806361;29;20474;-73
2024/01/11 00:19:02;;;;;;;44.73;19.67;;;;;;;-0.55;57.33;101832.66;4802311;29;20474;-75
2024/01/11 00:21:30;;;;;;;51.53;20.30;;;;;;;-0.58;57.16;101831.00;4803353;29;20864;-75
2024/01/11 00:23:58;;;;;;;47.97;20.17;;;;;;;-0.58;57.27;101827.53;4805314;29;20553;-71
2024/01/11 00:26:26;;;;;;;50.03;20.70;;;;;;;-0.55;57.33;101828.31;4803449;29;20511;-72
2024/01/11 00:28:54;;;;;;;51.37;20.67;;;;;;;-0.50;57.04;101838.56;4802355;29;20971;-74
2024/01/11 00:31:23;;;;;;;44.33;19.20;;;;;;;-0.51;57.09;101842.09;4801876;29;20477;-74
2024/01/11 00:33:50;;;;;;;51.77;20.60;;;;;;;-0.54;57.25;101830.00;4804598;29;20247;-75
2024/01/11 00:36:19;;;;;;;52.63;20.77;;;;;;;-0.54;57.42;101829.16;4803637;29;20231;-73
2024/01/11 00:38:47;;;;;;;52.30;21.23;;;;;;;-0.54;57.45;101829.16;4807451;29;20476;-73
2024/01/11 00:41:15;;;;;;;51.33;20.63;;;;;;;-0.58;57.37;101828.38;4807747;29;20552;-71
2024/01/11 00:43:43;;;;;;;50.67;20.10;;;;;;;-0.60;57.47;101819.75;4808463;29;20469;-73
2024/01/11 00:46:11;;;;;;;54.60;22.50;;;;;;;-0.60;57.60;101822.34;4804625;29;20468;-73
2024/01/11 00:48:40;;;;;;;47.57;20.70;;;;;;;-0.60;57.66;101829.31;4807547;29;20468;-72
2024/01/11 00:51:08;;;;;;;53.03;20.17;;;;;;;-0.61;57.66;101838.03;4806323;29;20507;-77
2024/01/11 00:53:36;;;;;;;51.83;20.23;;;;;;;-0.63;57.87;101837.25;4805788;29;20971;-71
2024/01/11 00:56:04;;;;;;;56.67;19.80;;;;;;;-0.63;57.71;101845.06;4805702;29;20546;-72
2024/01/11 00:58:32;;;;;;;49.73;20.00;;;;;;;-0.62;57.81;101845.03;4805959;29;20209;-72
2024/01/11 01:01:00;;;;;;;51.60;21.63;;;;;;;-0.62;57.86;101846.78;4806479;29;20270;-72
2024/01/11 01:03:27;;;;;;;48.27;19.90;;;;;;;-0.60;57.77;101855.38;4807195;29;20644;-73
2024/01/11 01:05:57;;;;;;;47.20;20.33;;;;;;;-0.62;57.63;101842.41;4806514;29;20666;-74
2024/01/11 01:08:25;;;;;;;51.63;20.97;;;;;;;-0.57;57.83;101840.50;4804718;29;21097;-74
2024/01/11 01:10:52;;;;;;;40.37;18.20;;;;;;;-0.57;57.37;101840.50;4805317;29;20585;-72
2024/01/11 01:13:20;;;;;;;50.97;20.37;;;;;;;-0.59;57.51;101842.31;4805090;29;21013;-75
2024/01/11 01:15:51;;;;;;;45.93;19.80;;;;;;;-0.62;57.56;101846.78;4804085;29;20498;-72
2024/01/11 01:18:18;;;;;;;50.77;20.80;;;;;;;-0.65;57.73;101837.28;4806748;29;20902;-75
2024/01/11 01:20:46;;;;;;;49.63;20.87;;;;;;;-0.66;57.90;101846.00;4806174;29;20579;-73
2024/01/11 01:23:16;;;;;;;48.80;19.97;;;;;;;-0.66;57.78;101840.78;4807650;29;20508;-72
2024/01/11 01:25:44;;;;;;;47.57;19.33;;;;;;;-0.68;57.82;101842.56;4805897;29;20218;-73
2024/01/11 01:28:12;;;;;;;49.90;21.23;;;;;;;-0.66;57.79;101845.13;4806955;29;20608;-71
2024/01/11 01:30:40;;;;;;;48.20;20.20;;;;;;;-0.68;57.85;101842.56;4806842;29;21819;-74
2024/01/11 01:33:08;;;;;;;47.67;20.37;;;;;;;-0.65;57.79;101837.28;4807826;29;20713;-72
2024/01/11 01:35:36;;;;;;;48.80;19.37;;;;;;;-0.63;57.55;101851.13;4808804;29;20496;-72
2024/01/11 01:38:04;;;;;;;52.93;20.20;;;;;;;-0.58;57.67;101849.22;4806299;29;20463;-73
2024/01/11 01:40:36;;;;;;;54.03;21.03;;;;;;;-0.62;57.60;101847.63;4807151;29;20514;-74
2024/01/11 01:43:07;;;;;;;42.80;19.33;;;;;;;-0.65;57.91;101845.09;4804705;29;20462;-73
2024/01/11 01:45:35;;;;;;;52.93;20.93;;;;;;;-0.68;57.78;101837.34;4804634;29;20499;-72
2024/01/11 01:48:04;;;;;;;49.10;21.67;;;;;;;-0.64;57.91;101848.56;4804435;29;20474;-74
2024/01/11 01:50:32;;;;;;;58.70;21.50;;;;;;;-0.61;57.68;101854.50;4806766;29;20270;-73
2024/01/11 01:53:01;;;;;;;48.97;20.90;;;;;;;-0.60;57.76;101851.00;4806616;29;20494;-73
2024/01/11 01:55:30;;;;;;;45.63;19.70;;;;;;;-0.57;57.75;101860.50;4805087;29;20472;-74
2024/01/11 01:58:01;;;;;;;53.40;20.53;;;;;;;-0.59;57.74;101857.94;4808109;29;20503;-72
2024/01/11 02:00:29;;;;;;;50.17;21.13;;;;;;;-0.61;57.83;101867.53;4806710;29;20293;-74
2024/01/11 02:02:58;;;;;;;46.80;19.40;;;;;;;-0.59;57.68;101876.19;4808176;29;21046;-72
2024/01/11 02:05:26;;;;;;;47.17;20.50;;;;;;;-0.62;57.90;101878.03;4808159;29;20519;-73
2024/01/11 02:07:54;;;;;;;48.53;21.13;;;;;;;-0.66;57.95;101869.44;4806380;29;20595;-73
2024/01/11 02:10:23;;;;;;;42.60;19.87;;;;;;;-0.69;57.95;101864.31;4803693;29;20471;-74
2024/01/11 02:12:51;;;;;;;52.53;21.40;;;;;;;-0.71;58.09;101862.66;4806793;29;20481;-73
2024/01/11 02:15:20;;;;;;;51.93;20.93;;;;;;;-0.69;58.06;101874.72;4803015;29;20892;-74
2024/01/11 02:17:48;;;;;;;48.90;20.10;;;;;;;-0.70;57.97;101874.78;4805357;29;20642;-72
2024/01/11 02:20:16;;;;;;;46.07;19.20;;;;;;;-0.68;57.99;101863.41;4804903;29;20219;-74
2024/01/11 02:22:48;;;;;;;52.67;20.03;;;;;;;-0.64;57.73;101856.38;4804089;29;20352;-75
2024/01/11 02:25:17;;;;;;;50.63;20.63;;;;;;;-0.63;57.90;101856.34;4806410;29;21007;-72
2024/01/11 02:27:46;;;;;;;48.77;19.90;;;;;;;-0.61;57.82;101859.72;4804764;29;20558;-75
2024/01/11 02:30:15;;;;;;;47.40;20.03;;;;;;;-0.65;57.82;101857.28;4806981;29;20512;-72
2024/01/11 02:32:46;;;;;;;47.67;19.43;;;;;;;-0.68;58.17;101858.19;4804613;29;20566;-73
2024/01/11 02:35:15;;;;;;;49.27;20.43;;;;;;;-0.70;57.95;101865.19;4803665;29;20464;-72
2024/01/11 02:37:44;;;;;;;55.40;20.40;;;;;;;-0.71;58.25;101863.50;4804868;29;20519;-74
2024/01/11 02:40:13;;;;;;;53.57;21.13;;;;;;;-0.71;58.13;101873.94;4807114;29;20604;-72
2024/01/11 02:42:43;;;;;;;51.07;21.37;;;;;;;-0.76;58.16;101861.03;4804900;29;20498;-74
2024/01/11 02:45:12;;;;;;;50.57;18.67;;;;;;;-0.77;58.19;101866.25;4804626;29;20467;-73
2024/01/11 02:47:40;;;;;;;44.70;20.73;;;;;;;-0.76;58.16;101876.66;4803981;29;21188;-74
2024/01/11 02:50:11;;;;;;;45.93;20.10;;;;;;;-0.77;58.24;101874.09;4805125;29;20503;-72
2024/01/11 02:52:39;;;;;;;50.70;19.97;;;;;;;-0.82;58.21;101866.41;4806858;29;20462;-71
2024/01/11 02:55:08;;;;;;;57.17;21.20;;;;;;;-0.87;58.40;101868.25;4807145;29;20522;-71
2024/01/11 02:57:36;;;;;;;54.60;20.97;;;;;;;-0.91;58.59;101871.88;4805570;29;20470;-72
2024/01/11 03:00:07;;;;;;;54.40;21.00;;;;;;;-0.90;58.44;101868.38;4806385;29;21027;-73
2024/01/11 03:02:34;;;;;;;54.00;21.43;;;;;;;-0.87;58.40;101862.19;4805411;29;20509;-73
2024/01/11 03:05:03;;;;;;;46.37;20.30;;;;;;;-0.89;58.56;101858.81;4807946;29;20560;-73
2024/01/11 03:07:32;;;;;;;47.23;19.80;;;;;;;-0.86;58.14;101867.38;4806975;29;20545;-72
2024/01/11 03:10:00;;;;;;;41.87;18.57;;;;;;;-0.85;58.05;101865.63;4804640;29;20754;-72
2024/01/11 03:12:28;;;;;;;55.13;19.10;;;;;;;-0.87;58.36;101865.66;4806365;29;20469;-73
2024/01/11 03:14:56;;;;;;;55.47;21.47;;;;;;;-0.89;58.28;101858.81;4805932;29;20601;-75
2024/01/11 03:17:25;;;;;;;50.13;19.40;;;;;;;-0.90;58.52;101859.69;4805758;29;20517;-77
2024/01/11 03:19:53;;;;;;;47.47;19.57;;;;;;;-0.95;58.61;101849.38;4809462;29;20467;-73
2024/01/11 03:22:21;;;;;;;50.90;19.40;;;;;;;-0.97;58.74;101843.41;4804790;29;21074;-76
2024/01/11 03:24:49;;;;;;;50.57;21.03;;;;;;;-0.97;58.80;101850.34;4805500;29;20485;-73
2024/01/11 03:27:18;;;;;;;46.30;20.00;;;;;;;-0.98;58.70;101843.44;4806772;29;20482;-72
2024/01/11 03:29:46;;;;;;;49.20;19.43;;;;;;;-1.04;58.79;101833.16;4805726;29;20591;-73
2024/01/11 03:32:14;;;;;;;42.47;19.43;;;;;;;-1.06;58.90;101829.75;4806712;29;20917;-74
2024/01/11 03:34:43;;;;;;;50.23;19.43;;;;;;;-1.05;59.06;101836.66;4804898;29;20493;-72
2024/01/11 03:37:11;;;;;;;48.63;19.37;;;;;;;-1.03;58.97;101834.88;4805817;29;21352;-73
2024/01/11 03:39:39;;;;;;;47.77;20.40;;;;;;;-1.04;58.90;101830.56;4803344;29;20661;-73
2024/01/11 03:42:07;;;;;;;45.90;19.63;;;;;;;-1.06;59.19;101834.97;4805723;29;20501;-72
2024/01/11 03:44:37;;;;;;;49.37;20.83;;;;;;;-1.10;59.01;101828.13;4804408;29;20903;-73
2024/01/11 03:47:05;;;;;;;51.30;20.17;;;;;;;-1.07;58.94;101828.91;4806127;29;20463;-75
2024/01/11 03:49:33;;;;;;;48.33;20.50;;;;;;;-1.04;58.61;101828.81;4804288;29;20478;-73
2024/01/11 03:52:02;;;;;;;45.37;18.70;;;;;;;-1.10;58.90;101835.94;4804455;29;20503;-73
2024/01/11 03:54:29;;;;;;;46.67;19.47;;;;;;;-1.11;58.96;101842.03;4802198;29;20604;-74
2024/01/11 03:56:57;;;;;;;48.00;20.63;;;;;;;-1.09;59.03;101837.66;4803430;29;20329;-74
2024/01/11 03:59:24;;;;;;;46.90;18.47;;;;;;;-1.13;58.84;101829.91;4805312;29;20561;-73
2024/01/11 04:01:53;;;;;;;52.63;19.60;;;;;;;-1.15;59.01;101836.94;4803656;29;20502;-73
2024/01/11 04:04:22;;;;;;;49.47;20.03;;;;;;;-1.18;59.32;101839.59;4803410;29;20230;-75
2024/01/11 04:06:50;;;;;;;44.13;19.07;;;;;;;-1.22;59.18;101832.75;4804199;29;20566;-72
2024/01/11 04:09:20;;;;;;;46.77;20.93;;;;;;;-1.20;59.12;101825.75;4806573;29;20244;-73
2024/01/11 04:11:48;;;;;;;47.07;19.57;;;;;;;-1.15;59.22;101836.94;4809460;29;20467;-73
2024/01/11 04:14:15;;;;;;;50.70;20.07;;;;;;;-1.11;59.03;101837.69;4807824;29;20553;-75
2024/01/11 04:16:45;;;;;;;43.93;18.47;;;;;;;-1.09;59.14;101835.03;4809328;29;20562;-73
2024/01/11 04:19:12;;;;;;;45.93;19.40;;;;;;;-1.10;59.11;101833.34;4810002;29;20467;-74
2024/01/11 04:21:40;;;;;;;48.33;18.37;;;;;;;-1.12;59.07;101835.97;4809900;29;20487;-74
2024/01/11 04:24:08;;;;;;;51.77;20.60;;;;;;;-1.15;59.02;101834.31;4809527;29;20501;-73
2024/01/11 04:26:37;;;;;;;51.87;20.47;;;;;;;-1.16;59.20;101842.16;4806583;29;20477;-73
2024/01/11 04:29:06;;;;;;;46.50;18.87;;;;;;;-1.19;59.23;101843.09;4809700;29;20486;-75
2024/01/11 04:31:34;;;;;;;50.63;20.07;;;;;;;-1.20;59.25;101845.72;4805667;29;20977;-74
2024/01/11 04:34:02;;;;;;;48.13;19.67;;;;;;;-1.22;59.33;101850.13;4809414;29;20477;-75
2024/01/11 04:36:29;;;;;;;54.43;20.77;;;;;;;-1.22;59.23;101856.19;4806671;29;21200;-73
2024/01/11 04:38:57;;;;;;;47.03;19.43;;;;;;;-1.22;59.39;101852.72;4809260;29;20549;-73
2024/01/11 04:41:25;;;;;;;46.83;19.67;;;;;;;-1.19;59.30;101856.13;4807234;29;20502;-73
2024/01/11 04:43:54;;;;;;;46.80;18.97;;;;;;;-1.16;59.27;101853.44;4807462;29;20994;-72
2024/01/11 04:46:24;;;;;;;50.80;19.23;;;;;;;-1.16;59.32;101856.03;4807226;29;20484;-74
2024/01/11 04:48:52;;;;;;;46.90;19.20;;;;;;;-1.18;59.35;101859.56;4806840;29;21428;-74
2024/01/11 04:51:20;;;;;;;55.10;20.67;;;;;;;-1.21;59.47;101860.50;4808217;29;20952;-74
2024/01/11 04:53:48;;;;;;;48.23;18.50;;;;;;;-1.22;59.47;101856.19;4808294;29;20556;-75
2024/01/11 04:56:17;;;;;;;50.97;21.03;;;;;;;-1.19;59.45;101866.53;4808671;29;20752;-73
2024/01/11 04:58:46;;;;;;;47.00;20.73;;;;;;;-1.20;59.29;101858.75;4807822;29;20560;-73
2024/01/11 05:01:16;;;;;;;48.47;19.37;;;;;;;-1.19;59.43;101861.31;4808842;29;20578;-74
2024/01/11 05:03:45;;;;;;;43.83;18.93;;;;;;;-1.15;59.49;101867.31;4809340;29;20503;-74
2024/01/11 05:06:16;;;;;;;49.57;19.60;;;;;;;-1.16;59.34;101865.59;4807045;29;20477;-73
2024/01/11 05:08:45;;;;;;;46.67;19.40;;;;;;;-1.19;59.42;101865.66;4810842;29;20476;-74
2024/01/11 05:11:19;;;;;;;44.83;18.30;;;;;;;-1.20;59.52;101870.03;4810015;29;21196;-74
2024/01/11 05:13:47;;;;;;;50.97;20.47;;;;;;;-1.21;59.63;101868.31;4810528;29;20477;-73
2024/01/11 05:16:22;;;;;;;50.27;21.37;;;;;;;-1.21;59.48;101868.31;4807914;29;20235;-72
2024/01/11 05:18:50;;;;;;;48.17;20.30;;;;;;;-1.24;59.61;101865.81;4810755;29;20968;-72
2024/01/11 05:21:18;;;;;;;44.87;18.40;;;;;;;-1.24;59.78;101871.00;4806702;29;20463;-74
2024/01/11 05:23:46;;;;;;;57.60;20.00;;;;;;;-1.21;59.67;101862.25;4808707;29;20523;-72
2024/01/11 05:26:16;;;;;;;43.97;18.53;;;;;;;-1.17;59.51;101861.28;4808871;29;20981;-72
2024/01/11 05:28:44;;;;;;;52.27;20.20;;;;;;;-1.19;59.63;101871.72;4809651;29;20450;-72
2024/01/11 05:31:13;;;;;;;48.80;19.37;;;;;;;-1.22;59.81;101870.94;4810525;29;20828;-73
2024/01/11 05:33:43;;;;;;;42.90;18.67;;;;;;;-1.21;59.44;101881.31;4806706;29;20483;-73
2024/01/11 05:36:11;;;;;;;47.47;19.97;;;;;;;-1.22;59.81;101881.34;4808468;29;20974;-72
2024/01/11 05:38:40;;;;;;;49.50;19.17;;;;;;;-1.22;59.65;101887.41;4811476;29;20471;-71
2024/01/11 05:41:08;;;;;;;45.60;19.27;;;;;;;-1.21;59.69;101894.34;4817985;29;20499;-72
2024/01/11 05:43:38;;;;;;;47.83;19.67;;;;;;;-1.24;59.79;101891.84;4824207;29;20527;-71
2024/01/11 05:46:07;;;;;;;50.57;21.33;;;;;;;-1.29;59.82;101892.81;4823319;29;20496;-72
2024/01/11 05:48:35;;;;;;;47.53;20.00;;;;;;;-1.34;59.83;101892.94;4831168;29;20462;-72
2024/01/11 05:51:04;;;;;;;50.90;20.93;;;;;;;-1.33;59.75;101893.81;4826660;29;20966;-73
2024/01/11 05:53:35;;;;;;;50.83;18.77;;;;;;;-1.33;59.78;101894.66;4828587;29;20508;-76
2024/01/11 05:56:07;;;;;;;48.80;20.27;;;;;;;-1.32;59.64;101895.53;4832823;29;20487;-75
2024/01/11 05:58:36;;;;;;;51.67;20.43;;;;;;;-1.31;59.62;101899.81;4828331;29;20546;-74
2024/01/11 06:01:04;;;;;;;49.07;19.53;;;;;;;-1.33;59.58;101899.00;4831554;29;20460;-73
2024/01/11 06:03:34;;;;;;;52.23;20.30;;;;;;;-1.28;59.30;101892.78;4830055;29;20996;-72
2024/01/11 06:06:05;;;;;;;51.50;20.00;;;;;;;-1.29;59.22;101891.06;4831944;29;20521;-72
2024/01/11 06:08:33;;;;;;;42.67;19.13;;;;;;;-1.26;59.32;101891.00;4829231;29;20216;-74
2024/01/11 06:11:01;;;;;;;46.13;18.57;;;;;;;-1.26;59.23;101890.16;4827651;29;20505;-71
2024/01/11 06:13:29;;;;;;;46.93;19.77;;;;;;;-1.26;59.24;101895.34;4827407;29;20563;-72
2024/01/11 06:15:56;;;;;;;46.47;18.97;;;;;;;-1.22;59.07;101899.56;4823304;29;20763;-77
2024/01/11 06:18:24;;;;;;;50.63;19.47;;;;;;;-1.15;59.00;101903.75;4823689;29;20456;-75
2024/01/11 06:20:52;;;;;;;52.00;18.17;;;;;;;-1.09;58.78;101907.94;4818826;29;20493;-73
2024/01/11 06:23:21;;;;;;;50.17;19.80;;;;;;;-1.10;58.67;101911.44;4811128;29;20562;-72
2024/01/11 06:25:49;;;;;;;45.30;18.63;;;;;;;-1.11;58.85;101912.31;4807588;29;20581;-72
2024/01/11 06:28:17;;;;;;;59.33;21.00;;;;;;;-1.11;58.66;101917.53;4806002;29;21151;-71
2024/01/11 06:30:45;;;;;;;48.80;19.97;;;;;;;-1.04;58.59;101926.91;4805566;29;20257;-72
2024/01/11 06:33:13;;;;;;;51.43;20.57;;;;;;;-1.08;58.62;101928.75;4812606;29;20956;-72
2024/01/11 06:35:41;;;;;;;55.63;20.83;;;;;;;-1.14;58.64;101928.88;4811794;29;20485;-75
2024/01/11 06:38:09;;;;;;;51.00;19.97;;;;;;;-1.18;58.76;101938.53;4811080;29;20486;-63
2024/01/11 06:40:38;;;;;;;49.57;20.77;;;;;;;-1.16;58.81;101944.56;4807133;29;20458;-63
2024/01/11 06:43:06;;;;;;;52.07;20.63;;;;;;;-1.14;58.98;101947.09;4805865;29;20616;-63
2024/01/11 06:45:33;;;;;;;45.50;19.03;;;;;;;-1.13;58.83;101951.41;4805861;29;20505;-62
2024/01/11 06:48:01;;;;;;;48.57;20.67;;;;;;;-1.14;59.02;101960.09;4808924;29;20559;-63
2024/01/11 06:50:29;;;;;;;52.07;20.57;;;;;;;-1.14;58.94;101958.38;4808265;29;20477;-64
2024/01/11 06:52:57;;;;;;;47.40;20.17;;;;;;;-1.13;58.87;101960.06;4806726;29;21404;-67
2024/01/11 06:55:25;;;;;;;54.07;21.20;;;;;;;-1.10;58.79;101963.50;4804622;29;20476;-65
2024/01/11 06:57:54;;;;;;;54.90;21.83;;;;;;;-1.08;58.77;101961.72;4805375;29;20455;-65
2024/01/11 07:00:22;;;;;;;59.20;21.43;;;;;;;-1.03;58.65;101972.88;4808204;29;20478;-63
2024/01/11 07:02:50;;;;;;;53.60;22.30;;;;;;;-1.06;58.36;101968.63;4806054;29;20557;-62
2024/01/11 07:05:18;;;;;;;57.30;22.53;;;;;;;-1.05;58.34;101977.25;4807494;29;21164;-65
2024/01/11 07:07:47;;;;;;;50.90;21.13;;;;;;;-1.04;58.21;101974.63;4806754;29;20218;-65
2024/01/11 07:10:15;;;;;;;57.93;22.20;;;;;;;-1.03;58.03;101972.88;4807773;29;20222;-63
2024/01/11 07:12:45;;;;;;;53.63;22.40;;;;;;;-1.06;57.98;101971.22;4808383;29;21472;-63
2024/01/11 07:15:14;;;;;;;60.43;21.80;;;;;;;-1.02;57.74;101980.66;4804907;29;20219;-66
2024/01/11 07:17:42;;;;;;;53.70;21.40;;;;;;;-1.04;57.68;101989.38;4805248;29;20589;-64
2024/01/11 07:20:11;;;;;;;55.07;22.20;;;;;;;-1.02;57.85;101979.78;4807577;29;20960;-64
2024/01/11 07:22:39;;;;;;;55.17;22.00;;;;;;;-1.03;57.54;101980.69;4803954;29;20215;-63
2024/01/11 07:25:09;;;;;;;54.87;21.43;;;;;;;-1.02;57.72;101977.19;4804031;29;20498;-63
2024/01/11 07:30:51;;;;;;;62.07;24.77;;;;;;;-1.00;57.34;101998.84;4807209;29;20502;-65
2024/01/11 07:33:39;;;;;;;52.87;21.63;;;;;;;-1.02;57.54;101991.06;4803108;29;20596;-67
2024/01/11 07:36:13;;;;;;;55.60;23.73;;;;;;;-1.01;57.45;101999.72;4807489;29;20462;-65
2024/01/11 07:38:49;;;;;;;63.27;22.73;;;;;;;-1.01;57.45;101999.72;4807341;29;20541;-68
2024/01/11 07:41:19;;;;;;;57.17;22.37;;;;;;;-0.99;57.35;101998.81;4806327;29;20467;-65
2024/01/11 07:43:58;;;;;;;51.33;21.60;;;;;;;-0.95;57.28;102000.44;4810292;29;20860;-66
2024/01/11 07:46:29;;;;;;;58.13;22.60;;;;;;;-0.96;57.22;101992.66;4809918;29;20459;-66
2024/01/11 07:49:12;;;;;;;55.40;22.30;;;;;;;-0.96;57.25;101992.66;4811789;29;21083;-66
2024/01/11 07:51:54;;;;;;;52.67;21.17;;;;;;;-0.93;57.14;102003.00;4797592;29;20467;-66
2024/01/11 07:54:23;;;;;;;60.70;23.13;;;;;;;-0.92;57.19;102002.13;4812678;29;20478;-66
2024/01/11 07:56:56;;;;;;;48.77;20.87;;;;;;;-0.91;57.08;102012.50;4811420;29;20458;-66
2024/01/11 07:59:28;;;;;;;50.47;21.20;;;;;;;-0.86;56.79;101999.34;4809603;29;20301;-67
2024/01/11 08:01:59;;;;;;;57.73;21.63;;;;;;;-0.81;56.83;101995.75;4808955;29;20224;-66
2024/01/11 08:04:28;;;;;;;50.27;22.10;;;;;;;-0.79;56.47;101995.69;4792084;29;20510;-65
2024/01/11 08:07:01;;;;;;;53.17;21.10;;;;;;;-0.79;56.58;101998.28;4807749;29;20746;-65
2024/01/11 08:09:31;;;;;;;60.13;24.03;;;;;;;-0.79;56.70;102000.91;4810220;29;20528;-65
2024/01/11 08:12:03;;;;;;;54.80;21.23;;;;;;;-0.74;56.70;102003.41;4806858;29;20223;-66
2024/01/11 08:14:36;;;;;;;56.47;23.03;;;;;;;-0.72;56.63;102002.47;4806940;29;20221;-66
2024/01/11 08:17:08;;;;;;;54.50;22.30;;;;;;;-0.74;56.45;102008.59;4808029;29;20223;-67
2024/01/11 08:19:37;;;;;;;55.60;22.83;;;;;;;-0.77;56.49;102020.81;4808748;29;20479;-65
2024/01/11 08:22:07;;;;;;;54.27;21.33;;;;;;;-0.80;56.60;102015.69;4810836;29;20885;-67
2024/01/11 08:24:47;;;;;;;48.73;21.10;;;;;;;-0.80;56.54;102020.91;4793284;29;20997;-66
2024/01/11 08:27:41;;;;;;;50.17;21.37;;;;;;;-0.81;56.58;102028.75;4790875;29;20491;-66
2024/01/11 08:30:12;;;;;;;57.23;21.47;;;;;;;-0.75;56.46;102023.38;4787356;29;20668;-66
2024/01/11 08:32:46;;;;;;;56.83;21.70;;;;;;;-0.73;56.29;102021.59;4791279;29;20475;-66
2024/01/11 08:35:19;;;;;;;51.73;21.50;;;;;;;-0.73;56.16;102025.97;4790861;29;21060;-68
2024/01/11 08:37:49;;;;;;;55.73;21.97;;;;;;;-0.73;56.33;102020.75;4790208;29;20531;-66
2024/01/11 08:40:26;;;;;;;57.37;21.53;;;;;;;-0.68;56.20;102016.25;4792802;29;20456;-65
2024/01/11 08:42:59;;;;;;;54.23;22.37;;;;;;;-0.63;56.13;102017.03;4793079;29;20461;-66
2024/01/11 08:45:31;;;;;;;56.50;22.70;;;;;;;-0.61;56.10;102016.06;4790454;29;20225;-66
2024/01/11 08:48:02;;;;;;;60.77;24.73;;;;;;;-0.60;56.16;102017.78;4792327;29;20480;-66
2024/01/11 08:50:32;;;;;;;59.10;23.77;;;;;;;-0.60;56.37;102017.78;4790821;29;20465;-65
2024/01/11 08:53:01;;;;;;;51.17;22.00;;;;;;;-0.54;56.11;102012.44;4791900;29;20215;-67
2024/01/11 08:55:30;;;;;;;52.20;21.83;;;;;;;-0.48;56.01;102008.78;4790459;29;20221;-65
2024/01/11 08:58:05;;;;;;;56.00;23.67;;;;;;;-0.48;55.83;102014.88;4791123;29;20283;-66
2024/01/11 09:00:34;;;;;;;54.80;22.93;;;;;;;-0.46;55.80;102004.41;4791999;29;20214;-65
2024/01/11 09:03:06;;;;;;;51.40;21.67;;;;;;;-0.39;55.91;102000.72;4791325;29;20233;-66
2024/01/11 09:05:38;;;;;;;57.23;23.10;;;;;;;-0.30;55.95;102010.91;4791549;29;20254;-66
2024/01/11 09:08:07;;;;;;;51.57;23.87;;;;;;;-0.29;55.88;102010.00;4792766;29;20804;-66
2024/01/11 09:10:41;;;;;;;57.80;23.13;;;;;;;-0.27;55.82;102005.63;4790584;29;20675;-66
2024/01/11 09:13:13;;;;;;;58.03;22.37;;;;;;;-0.26;55.79;102006.44;4788748;29;20279;-66
2024/01/11 09:15:45;;;;;;;54.93;22.83;;;;;;;-0.25;55.84;102011.63;4790350;29;20606;-66
2024/01/11 09:18:18;;;;;;;56.97;22.73;;;;;;;-0.19;55.72;102018.44;4789366;29;20223;-66
2024/01/11 09:20:48;;;;;;;58.10;22.77;;;;;;;-0.16;55.71;102015.72;4793132;29;20222;-66
2024/01/11 09:23:19;;;;;;;53.83;22.80;;;;;;;-0.08;55.52;102021.59;4792095;29;20749;-65
2024/01/11 09:25:48;;;;;;;52.97;23.13;;;;;;;-0.06;55.23;102025.88;4791031;29;20657;-66
2024/01/11 09:28:17;;;;;;;61.20;24.40;;;;;;;-0.01;55.27;102023.16;4791044;29;20228;-66
2024/01/11 09:30:49;;;;;;;53.40;22.83;;;;;;;0.06;55.02;102027.28;4788750;29;20215;-66
2024/01/11 09:33:23;;;;;;;65.90;24.07;;;;;;;0.15;54.82;102026.16;4791038;29;20212;-65
2024/01/11 09:35:52;;;;;;;62.07;24.27;;;;;;;0.22;54.64;102033.78;4789173;29;20224;-67
2024/01/11 09:38:22;;;;;;;58.33;24.10;;;;;;;0.32;54.71;102045.66;4790155;29;20325;-66
2024/01/11 09:41:13;;;;;;;66.00;23.70;;;;;;;0.41;54.46;102041.94;4789905;29;20226;-66
2024/01/11 09:43:47;;;;;;;59.47;23.70;;;;;;;0.50;54.00;102052.09;4790584;29;20230;-66
2024/01/11 09:46:17;;;;;;;55.07;25.00;;;;;;;0.60;54.04;102052.69;4788968;29;20242;-66
2024/01/11 09:48:51;;;;;;;60.70;25.43;;;;;;;0.76;53.97;102059.13;4792871;29;20228;-66
2024/01/11 09:51:20;;;;;;;60.00;24.93;;;;;;;0.89;53.54;102064.81;4791495;29;20216;-66
2024/01/11 09:53:52;;;;;;;58.77;24.83;;;;;;;0.98;53.27;102065.38;4790414;29;20222;-66
2024/01/11 09:56:25;;;;;;;65.93;25.97;;;;;;;1.04;52.88;102057.38;4789851;29;20213;-68
2024/01/11 09:59:06;;;;;;;59.90;24.57;;;;;;;1.13;52.72;102054.47;4790028;29;20304;-67
2024/01/11 10:01:35;;;;;;;54.67;23.40;;;;;;;1.18;52.65;102054.31;4790788;29;20217;-67
2024/01/11 10:04:06;;;;;;;61.33;23.13;;;;;;;1.28;52.23;102065.31;4791283;29;20224;-67
2024/01/11 10:06:42;;;;;;;54.57;23.63;;;;;;;1.60;51.67;102054.63;4791322;29;20232;-66
2024/01/11 10:09:11;;;;;;;57.17;24.53;;;;;;;1.81;51.18;102056.50;4790744;29;20205;-65
2024/01/11 10:11:40;;;;;;;58.43;24.57;;;;;;;1.88;50.85;102033.59;4790150;29;20242;-66
2024/01/11 10:14:19;;;;;;;57.63;25.53;;;;;;;2.05;50.62;102028.59;4787886;29;20796;-67
2024/01/11 10:16:49;;;;;;;59.90;25.93;;;;;;;3.13;48.98;102029.66;4789626;29;20688;-67
2024/01/11 10:19:21;;;;;;;59.20;26.33;;;;;;;4.75;45.68;102024.13;4789717;29;20218;-66
2024/01/11 10:21:53;;;;;;;58.80;25.83;;;;;;;5.38;44.15;102018.44;4788134;29;20273;-67
2024/01/11 10:24:26;;;;;;;51.77;26.30;;;;;;;5.86;42.85;102009.81;4789181;29;20242;-66
2024/01/11 10:27:03;;;;;;;56.20;26.37;;;;;;;5.94;42.53;102011.13;4791018;29;20228;-68
2024/01/11 10:29:39;;;;;;;55.40;28.13;;;;;;;5.51;43.03;102030.91;4789756;29;20212;-66
2024/01/11 10:32:29;;;;;;;58.60;28.10;;;;;;;4.67;44.05;102026.28;4780296;29;20213;-66
2024/01/11 10:35:00;;;;;;;58.00;29.00;;;;;;;4.56;44.39;102017.22;4789640;29;20208;-66
2024/01/11 10:37:35;;;;;;;60.37;28.87;;;;;;;5.12;43.87;102038.13;4790014;29;20314;-66
2024/01/11 10:40:10;;;;;;;58.90;28.63;;;;;;;5.28;43.61;102039.94;4789830;29;20213;-67
2024/01/11 10:42:46;;;;;;;58.00;29.70;;;;;;;4.85;44.08;102051.69;4791608;29;20223;-65
2024/01/11 10:45:17;;;;;;;57.30;28.57;;;;;;;5.77;43.39;102050.63;4786188;29;20245;-66
2024/01/11 10:47:55;;;;;;;59.97;30.10;;;;;;;9.01;38.51;102040.41;4790932;29;20215;-67
2024/01/11 10:50:35;;;;;;;60.03;30.27;;;;;;;11.89;34.00;102036.59;4790055;29;20219;-66
2024/01/11 10:53:18;;;;;;;58.30;30.60;;;;;;;13.69;31.46;102022.78;4790326;29;20212;-66
2024/01/11 10:55:51;;;;;;;56.50;30.40;;;;;;;12.92;31.59;102011.50;4788436;29;20620;-67
2024/01/11 10:58:22;;;;;;;59.77;32.13;;;;;;;11.93;32.57;102002.66;4788787;29;20345;-65
2024/01/11 11:00:52;;;;;;;52.43;33.73;;;;;;;11.18;33.52;102010.16;4788289;29;20579;-67
2024/01/11 11:03:22;;;;;;;54.57;34.03;;;;;;;10.72;34.22;102002.09;4791583;29;20221;-67
2024/01/11 11:05:55;;;;;;;54.80;34.80;;;;;;;10.33;34.68;102003.16;4787903;29;21070;-66
2024/01/11 11:08:26;;;;;;;50.83;34.87;;;;;;;9.58;35.70;102010.19;4789205;29;20213;-69
2024/01/11 11:10:57;;;;;;;55.87;34.17;;;;;;;8.76;36.60;102005.94;4788729;29;20209;-67
2024/01/11 11:13:27;;;;;;;52.43;34.47;;;;;;;8.28;37.34;102008.06;4786552;29;20344;-68
2024/01/11 11:16:03;;;;;;;56.90;32.60;;;;;;;8.23;37.75;102011.94;4788939;29;20228;-68
2024/01/11 11:18:34;;;;;;;53.80;32.33;;;;;;;8.61;37.34;102014.84;4787358;29;20666;-68
2024/01/11 11:21:11;;;;;;;52.37;34.13;;;;;;;9.61;36.01;101988.75;4786612;29;20214;-67
2024/01/11 11:23:40;;;;;;;58.57;34.20;;;;;;;11.79;33.07;101970.97;4789518;29;21147;-68
2024/01/11 11:26:16;;;;;;;49.43;31.63;;;;;;;12.77;31.22;101970.13;4789335;29;20233;-68